sensor_id;sensor_type;location;lat;lon;timestamp;P1;durP1;ratioP1;P2;durP2;ratioP2
64560;SDS011;50960;46.838;16.838;2022-10-19T03:02:31;21.83;;;18.88;;
64560;SDS011;50960;46.838;16.838;2022-10-19T03:04:57;24.75;;;18.58;;
64560;SDS011;50960;46.838;16.838;2022-10-19T03:07:24;22.35;;;18.92;;
64560;SDS011;50960;46.838;16.838;2022-10-19T03:09:50;21.05;;;18.35;;
64560;SDS011;50960;46.838;16.838;2022-10-19T03:12:16;22.70;;;19.05;;
64560;SDS011;50960;46.838;16.838;2022-10-19T03:14:43;29.40;;;24.20;;
64560;SDS011;50960;46.838;16.838;2022-10-19T03:17:09;25.08;;;21.17;;
64560;SDS011;50960;46.838;16.838;2022-10-19T03:19:36;21.60;;;18.63;;
64560;SDS011;50960;46.838;16.838;2022-10-19T03:22:03;20.83;;;18.65;;
64560;SDS011;50960;46.838;16.838;2022-10-19T03:24:30;21.33;;;18.20;;
64560;SDS011;50960;46.838;16.838;2022-10-19T03:26:56;20.10;;;17.67;;
64560;SDS011;50960;46.838;16.838;2022-10-19T03:29:22;19.98;;;17.90;;
64560;SDS011;50960;46.838;16.838;2022-10-19T03:31:51;20.50;;;17.23;;
64560;SDS011;50960;46.838;16.838;2022-10-19T03:34:18;18.88;;;16.58;;
64560;SDS011;50960;46.838;16.838;2022-10-19T03:36:44;18.75;;;16.85;;
64560;SDS011;50960;46.838;16.838;2022-10-19T03:39:11;18.73;;;16.73;;
64560;SDS011;50960;46.838;16.838;2022-10-19T03:41:39;17.00;;;15.05;;
64560;SDS011;50960;46.838;16.838;2022-10-19T03:44:06;17.30;;;15.23;;
64560;SDS011;50960;46.838;16.838;2022-10-19T03:46:34;19.10;;;17.02;;
64560;SDS011;50960;46.838;16.838;2022-10-19T03:49:01;15.45;;;13.85;;
64560;SDS011;50960;46.838;16.838;2022-10-19T03:51:28;19.30;;;16.10;;
64560;SDS011;50960;46.838;16.838;2022-10-19T03:53:59;23.45;;;19.55;;
64560;SDS011;50960;46.838;16.838;2022-10-19T03:56:27;16.58;;;14.82;;
64560;SDS011;50960;46.838;16.838;2022-10-19T03:58:56;16.85;;;15.02;;
64560;SDS011;50960;46.838;16.838;2022-10-19T04:01:27;15.38;;;13.73;;
64560;SDS011;50960;46.838;16.838;2022-10-19T04:03:56;17.17;;;14.40;;
64560;SDS011;50960;46.838;16.838;2022-10-19T04:06:28;15.87;;;13.57;;
64560;SDS011;50960;46.838;16.838;2022-10-19T04:08:56;17.27;;;13.15;;
64560;SDS011;50960;46.838;16.838;2022-10-19T04:11:24;14.65;;;12.90;;
64560;SDS011;50960;46.838;16.838;2022-10-19T04:13:52;13.93;;;12.45;;
64560;SDS011;50960;46.838;16.838;2022-10-19T04:16:20;13.88;;;12.48;;
64560;SDS011;50960;46.838;16.838;2022-10-19T04:18:47;13.15;;;11.85;;
64560;SDS011;50960;46.838;16.838;2022-10-19T04:21:32;13.45;;;12.05;;
64560;SDS011;50960;46.838;16.838;2022-10-19T04:24:04;14.75;;;11.77;;
64560;SDS011;50960;46.838;16.838;2022-10-19T04:26:39;13.82;;;12.32;;
64560;SDS011;50960;46.838;16.838;2022-10-19T04:29:07;17.25;;;12.05;;
64560;SDS011;50960;46.838;16.838;2022-10-19T04:31:34;15.55;;;12.32;;
64560;SDS011;50960;46.838;16.838;2022-10-19T04:34:01;14.23;;;12.57;;
64560;SDS011;50960;46.838;16.838;2022-10-19T04:36:28;14.10;;;12.65;;
64560;SDS011;50960;46.838;16.838;2022-10-19T04:38:54;14.70;;;13.02;;
64560;SDS011;50960;46.838;16.838;2022-10-19T04:41:20;16.25;;;13.98;;
64560;SDS011;50960;46.838;16.838;2022-10-19T04:43:53;13.73;;;12.15;;
64560;SDS011;50960;46.838;16.838;2022-10-19T04:46:21;13.73;;;11.88;;
64560;SDS011;50960;46.838;16.838;2022-10-19T04:48:48;15.88;;;13.25;;
64560;SDS011;50960;46.838;16.838;2022-10-19T04:51:16;14.57;;;11.68;;
64560;SDS011;50960;46.838;16.838;2022-10-19T04:53:44;13.73;;;11.10;;
64560;SDS011;50960;46.838;16.838;2022-10-19T04:56:14;12.90;;;10.88;;
64560;SDS011;50960;46.838;16.838;2022-10-19T04:58:42;13.10;;;9.33;;
64560;SDS011;50960;46.838;16.838;2022-10-19T05:01:10;11.10;;;9.10;;
64560;SDS011;50960;46.838;16.838;2022-10-19T05:03:38;10.15;;;8.68;;
64560;SDS011;50960;46.838;16.838;2022-10-19T05:06:05;9.18;;;7.72;;
64560;SDS011;50960;46.838;16.838;2022-10-19T13:42:29;2.90;;;2.70;;
64560;SDS011;50960;46.838;16.838;2022-10-19T13:44:57;2.70;;;2.50;;
64560;SDS011;50960;46.838;16.838;2022-10-19T13:47:29;4.50;;;2.60;;
64560;SDS011;50960;46.838;16.838;2022-10-19T13:50:15;3.45;;;2.50;;
64560;SDS011;50960;46.838;16.838;2022-10-19T14:12:07;2.70;;;2.50;;
64560;SDS011;50960;46.838;16.838;2022-10-19T14:14:41;3.40;;;2.70;;
64560;SDS011;50960;46.838;16.838;2022-10-19T14:17:16;5.45;;;2.67;;
64560;SDS011;50960;46.838;16.838;2022-10-19T14:19:53;3.75;;;2.40;;
64560;SDS011;50960;46.838;16.838;2022-10-19T14:24:50;3.28;;;2.90;;
64560;SDS011;50960;46.838;16.838;2022-10-19T14:27:24;6.03;;;3.38;;
64560;SDS011;50960;46.838;16.838;2022-10-19T14:29:51;3.58;;;3.28;;
64560;SDS011;50960;46.838;16.838;2022-10-19T14:32:23;4.47;;;4.07;;
64560;SDS011;50960;46.838;16.838;2022-10-19T14:34:52;6.20;;;4.55;;
64560;SDS011;50960;46.838;16.838;2022-10-19T14:37:21;4.53;;;3.50;;
64560;SDS011;50960;46.838;16.838;2022-10-19T14:40:02;2.65;;;2.45;;
64560;SDS011;50960;46.838;16.838;2022-10-19T14:42:48;2.97;;;2.78;;
64560;SDS011;50960;46.838;16.838;2022-10-19T14:45:19;2.70;;;2.50;;
64560;SDS011;50960;46.838;16.838;2022-10-19T14:47:54;2.78;;;2.60;;
64560;SDS011;50960;46.838;16.838;2022-10-19T14:50:25;2.80;;;2.60;;
64560;SDS011;50960;46.838;16.838;2022-10-19T14:59:46;3.60;;;3.30;;
64560;SDS011;50960;46.838;16.838;2022-10-19T15:04:57;3.90;;;3.60;;
64560;SDS011;50960;46.838;16.838;2022-10-19T15:07:32;5.25;;;4.75;;
64560;SDS011;50960;46.838;16.838;2022-10-19T15:10:16;10.20;;;5.50;;
64560;SDS011;50960;46.838;16.838;2022-10-19T15:13:03;7.68;;;5.57;;
64560;SDS011;50960;46.838;16.838;2022-10-19T15:15:32;5.10;;;4.55;;
64560;SDS011;50960;46.838;16.838;2022-10-19T15:22:59;6.43;;;5.03;;
64560;SDS011;50960;46.838;16.838;2022-10-19T15:25:31;4.60;;;4.20;;
64560;SDS011;50960;46.838;16.838;2022-10-19T15:28:17;4.78;;;3.50;;
64560;SDS011;50960;46.838;16.838;2022-10-19T15:31:40;4.68;;;3.67;;
64560;SDS011;50960;46.838;16.838;2022-10-19T15:33:53;3.60;;;3.30;;
64560;SDS011;50960;46.838;16.838;2022-10-19T15:36:25;3.85;;;3.50;;
64560;SDS011;50960;46.838;16.838;2022-10-19T15:41:28;4.18;;;3.47;;
64560;SDS011;50960;46.838;16.838;2022-10-19T15:43:59;3.65;;;3.35;;
64560;SDS011;50960;46.838;16.838;2022-10-19T15:46:29;3.70;;;3.30;;
64560;SDS011;50960;46.838;16.838;2022-10-19T15:49:02;3.70;;;3.40;;
64560;SDS011;50960;46.838;16.838;2022-10-19T15:51:54;4.97;;;3.50;;
64560;SDS011;50960;46.838;16.838;2022-10-19T15:54:20;4.15;;;3.60;;
64560;SDS011;50960;46.838;16.838;2022-10-19T15:56:49;5.28;;;3.90;;
64560;SDS011;50960;46.838;16.838;2022-10-19T15:59:18;7.85;;;5.03;;
64560;SDS011;50960;46.838;16.838;2022-10-19T16:01:46;8.90;;;4.80;;
64560;SDS011;50960;46.838;16.838;2022-10-19T16:04:14;8.07;;;6.03;;
64560;SDS011;50960;46.838;16.838;2022-10-19T16:06:41;12.73;;;10.60;;
64560;SDS011;50960;46.838;16.838;2022-10-19T16:09:18;17.23;;;12.90;;
64560;SDS011;50960;46.838;16.838;2022-10-19T16:11:46;10.35;;;6.30;;
64560;SDS011;50960;46.838;16.838;2022-10-19T16:14:13;12.05;;;9.50;;
64560;SDS011;50960;46.838;16.838;2022-10-19T16:16:39;11.75;;;8.35;;
64560;SDS011;50960;46.838;16.838;2022-10-19T16:19:06;8.90;;;7.78;;
64560;SDS011;50960;46.838;16.838;2022-10-19T16:21:34;10.68;;;7.78;;
64560;SDS011;50960;46.838;16.838;2022-10-19T16:24:01;6.88;;;6.15;;
64560;SDS011;50960;46.838;16.838;2022-10-19T16:26:28;6.40;;;5.70;;
64560;SDS011;50960;46.838;16.838;2022-10-19T16:28:56;9.85;;;6.72;;
64560;SDS011;50960;46.838;16.838;2022-10-19T16:31:23;10.35;;;7.07;;
64560;SDS011;50960;46.838;16.838;2022-10-19T16:33:49;9.93;;;6.35;;
64560;SDS011;50960;46.838;16.838;2022-10-19T16:36:15;9.25;;;6.15;;
64560;SDS011;50960;46.838;16.838;2022-10-19T16:38:45;9.20;;;5.88;;
64560;SDS011;50960;46.838;16.838;2022-10-19T16:41:11;10.27;;;6.43;;
64560;SDS011;50960;46.838;16.838;2022-10-19T16:43:38;9.15;;;7.10;;
64560;SDS011;50960;46.838;16.838;2022-10-19T16:46:04;9.10;;;6.32;;
64560;SDS011;50960;46.838;16.838;2022-10-19T16:48:32;10.07;;;6.88;;
64560;SDS011;50960;46.838;16.838;2022-10-19T16:53:31;20.45;;;11.90;;
64560;SDS011;50960;46.838;16.838;2022-10-19T16:56:05;28.08;;;14.63;;
64560;SDS011;50960;46.838;16.838;2022-10-19T16:58:37;15.82;;;11.27;;
64560;SDS011;50960;46.838;16.838;2022-10-19T17:01:07;26.23;;;16.30;;
64560;SDS011;50960;46.838;16.838;2022-10-19T17:03:34;23.63;;;13.50;;
64560;SDS011;50960;46.838;16.838;2022-10-19T17:06:02;22.50;;;13.80;;
64560;SDS011;50960;46.838;16.838;2022-10-19T17:08:33;21.83;;;14.60;;
64560;SDS011;50960;46.838;16.838;2022-10-19T17:11:13;27.13;;;16.38;;
64560;SDS011;50960;46.838;16.838;2022-10-19T17:13:48;18.40;;;11.98;;
64560;SDS011;50960;46.838;16.838;2022-10-19T17:16:16;16.90;;;10.98;;
64560;SDS011;50960;46.838;16.838;2022-10-19T17:18:43;18.95;;;14.70;;
64560;SDS011;50960;46.838;16.838;2022-10-19T17:21:13;26.83;;;18.45;;
64560;SDS011;50960;46.838;16.838;2022-10-19T17:26:09;30.42;;;17.92;;
64560;SDS011;50960;46.838;16.838;2022-10-19T17:28:36;28.05;;;17.02;;
64560;SDS011;50960;46.838;16.838;2022-10-19T17:31:04;21.48;;;15.93;;
64560;SDS011;50960;46.838;16.838;2022-10-19T17:33:33;19.75;;;16.10;;
64560;SDS011;50960;46.838;16.838;2022-10-19T17:36:13;25.85;;;16.48;;
64560;SDS011;50960;46.838;16.838;2022-10-19T17:38:44;23.98;;;17.13;;
64560;SDS011;50960;46.838;16.838;2022-10-19T17:41:12;26.52;;;17.40;;
64560;SDS011;50960;46.838;16.838;2022-10-19T17:43:40;25.35;;;18.13;;
64560;SDS011;50960;46.838;16.838;2022-10-19T17:46:08;23.50;;;18.60;;
64560;SDS011;50960;46.838;16.838;2022-10-19T17:48:37;16.50;;;12.30;;
64560;SDS011;50960;46.838;16.838;2022-10-19T17:51:12;18.10;;;13.77;;
64560;SDS011;50960;46.838;16.838;2022-10-19T17:53:40;18.17;;;12.85;;
64560;SDS011;50960;46.838;16.838;2022-10-19T17:56:11;20.25;;;12.18;;
64560;SDS011;50960;46.838;16.838;2022-10-19T17:58:40;17.33;;;12.27;;
64560;SDS011;50960;46.838;16.838;2022-10-19T18:01:06;17.15;;;13.07;;
64560;SDS011;50960;46.838;16.838;2022-10-19T18:03:35;22.10;;;13.35;;
64560;SDS011;50960;46.838;16.838;2022-10-19T18:08:34;17.35;;;10.65;;
64560;SDS011;50960;46.838;16.838;2022-10-19T18:11:04;12.85;;;9.90;;
64560;SDS011;50960;46.838;16.838;2022-10-19T18:13:32;10.70;;;9.60;;
64560;SDS011;50960;46.838;16.838;2022-10-19T18:16:00;11.60;;;9.55;;
64560;SDS011;50960;46.838;16.838;2022-10-19T18:18:27;9.98;;;9.00;;
64560;SDS011;50960;46.838;16.838;2022-10-19T18:20:54;10.10;;;8.00;;
64560;SDS011;50960;46.838;16.838;2022-10-19T18:23:21;8.48;;;7.45;;
64560;SDS011;50960;46.838;16.838;2022-10-19T18:25:47;9.32;;;7.35;;
64560;SDS011;50960;46.838;16.838;2022-10-19T18:28:14;9.52;;;6.68;;
64560;SDS011;50960;46.838;16.838;2022-10-19T18:30:42;6.68;;;5.95;;
64560;SDS011;50960;46.838;16.838;2022-10-19T18:33:08;9.48;;;6.32;;
64560;SDS011;50960;46.838;16.838;2022-10-19T18:35:35;5.78;;;5.28;;
64560;SDS011;50960;46.838;16.838;2022-10-19T18:38:03;6.88;;;4.30;;
64560;SDS011;50960;46.838;16.838;2022-10-19T18:40:32;5.13;;;4.60;;
64560;SDS011;50960;46.838;16.838;2022-10-19T18:43:00;5.15;;;4.47;;
64560;SDS011;50960;46.838;16.838;2022-10-19T18:45:26;6.22;;;4.90;;
64560;SDS011;50960;46.838;16.838;2022-10-19T18:47:52;6.32;;;4.95;;
64560;SDS011;50960;46.838;16.838;2022-10-19T18:50:18;9.63;;;5.53;;
64560;SDS011;50960;46.838;16.838;2022-10-19T18:52:45;5.97;;;4.80;;
64560;SDS011;50960;46.838;16.838;2022-10-19T18:55:11;7.35;;;5.63;;
64560;SDS011;50960;46.838;16.838;2022-10-19T18:57:37;6.22;;;5.35;;
64560;SDS011;50960;46.838;16.838;2022-10-19T19:00:03;9.35;;;4.75;;
64560;SDS011;50960;46.838;16.838;2022-10-19T19:02:30;5.93;;;4.88;;
64560;SDS011;50960;46.838;16.838;2022-10-19T19:04:56;5.10;;;4.35;;
64560;SDS011;50960;46.838;16.838;2022-10-19T19:07:23;5.82;;;4.68;;
64560;SDS011;50960;46.838;16.838;2022-10-19T19:09:49;6.18;;;4.55;;
64560;SDS011;50960;46.838;16.838;2022-10-19T19:12:15;5.05;;;4.50;;
64560;SDS011;50960;46.838;16.838;2022-10-19T19:14:42;4.95;;;4.35;;
64560;SDS011;50960;46.838;16.838;2022-10-19T19:17:09;4.82;;;4.30;;
64560;SDS011;50960;46.838;16.838;2022-10-19T19:19:36;7.10;;;4.70;;
64560;SDS011;50960;46.838;16.838;2022-10-19T19:22:02;9.38;;;6.32;;
64560;SDS011;50960;46.838;16.838;2022-10-19T19:24:30;5.25;;;4.35;;
64560;SDS011;50960;46.838;16.838;2022-10-19T19:26:57;8.07;;;4.78;;
64560;SDS011;50960;46.838;16.838;2022-10-19T19:29:24;6.65;;;4.32;;
64560;SDS011;50960;46.838;16.838;2022-10-19T19:31:52;4.95;;;3.78;;
64560;SDS011;50960;46.838;16.838;2022-10-19T19:34:18;6.63;;;4.20;;
64560;SDS011;50960;46.838;16.838;2022-10-19T19:36:44;5.38;;;4.38;;
64560;SDS011;50960;46.838;16.838;2022-10-19T19:39:12;4.72;;;4.10;;
64560;SDS011;50960;46.838;16.838;2022-10-19T19:41:43;4.75;;;4.18;;
64560;SDS011;50960;46.838;16.838;2022-10-19T19:44:10;6.97;;;3.95;;
64560;SDS011;50960;46.838;16.838;2022-10-19T19:46:37;7.55;;;4.50;;
64560;SDS011;50960;46.838;16.838;2022-10-19T19:49:03;4.20;;;3.60;;
64560;SDS011;50960;46.838;16.838;2022-10-19T19:51:30;5.10;;;3.60;;
64560;SDS011;50960;46.838;16.838;2022-10-19T19:53:57;3.40;;;3.10;;
64560;SDS011;50960;46.838;16.838;2022-10-19T19:56:24;4.57;;;3.47;;
64560;SDS011;50960;46.838;16.838;2022-10-19T19:58:55;4.57;;;3.08;;
64560;SDS011;50960;46.838;16.838;2022-10-19T20:01:22;3.80;;;3.03;;
64560;SDS011;50960;46.838;16.838;2022-10-19T20:03:50;4.03;;;3.03;;
64560;SDS011;50960;46.838;16.838;2022-10-19T20:06:18;5.18;;;4.68;;
64560;SDS011;50960;46.838;16.838;2022-10-19T20:08:45;3.63;;;3.03;;
64560;SDS011;50960;46.838;16.838;2022-10-19T20:11:12;5.05;;;3.22;;
64560;SDS011;50960;46.838;16.838;2022-10-19T20:13:40;4.97;;;3.03;;
64560;SDS011;50960;46.838;16.838;2022-10-19T20:16:09;3.15;;;2.83;;
64560;SDS011;50960;46.838;16.838;2022-10-19T20:18:59;4.07;;;2.90;;
64560;SDS011;50960;46.838;16.838;2022-10-19T20:21:28;3.30;;;3.00;;
64560;SDS011;50960;46.838;16.838;2022-10-19T20:23:56;6.47;;;3.17;;
64560;SDS011;50960;46.838;16.838;2022-10-19T20:26:31;4.47;;;3.20;;
64560;SDS011;50960;46.838;16.838;2022-10-19T20:28:57;4.00;;;2.75;;
64560;SDS011;50960;46.838;16.838;2022-10-19T20:31:25;6.90;;;3.83;;
64560;SDS011;50960;46.838;16.838;2022-10-19T20:33:52;3.30;;;2.58;;
64560;SDS011;50960;46.838;16.838;2022-10-19T20:36:19;3.28;;;2.75;;
64560;SDS011;50960;46.838;16.838;2022-10-19T20:38:48;3.70;;;2.83;;
64560;SDS011;50960;46.838;16.838;2022-10-19T20:41:22;3.83;;;3.00;;
64560;SDS011;50960;46.838;16.838;2022-10-19T20:43:50;5.15;;;2.83;;
64560;SDS011;50960;46.838;16.838;2022-10-19T20:46:19;3.03;;;2.70;;
64560;SDS011;50960;46.838;16.838;2022-10-19T20:48:50;4.53;;;2.67;;
64560;SDS011;50960;46.838;16.838;2022-10-19T20:51:23;4.50;;;2.60;;
64560;SDS011;50960;46.838;16.838;2022-10-19T20:53:52;2.85;;;2.42;;
64560;SDS011;50960;46.838;16.838;2022-10-19T20:56:20;3.95;;;2.58;;
64560;SDS011;50960;46.838;16.838;2022-10-19T20:58:59;2.92;;;2.50;;
64560;SDS011;50960;46.838;16.838;2022-10-19T21:01:27;3.63;;;2.55;;
64560;SDS011;50960;46.838;16.838;2022-10-19T21:03:55;3.92;;;2.40;;
64560;SDS011;50960;46.838;16.838;2022-10-19T21:06:24;3.70;;;2.80;;
